Time;durP1;ratioP1;P1;durP2;ratioP2;P2;SDS_P1;SDS_P2;PMS_P1;PMS_P2;Temp;Humidity;BMP_temperature;BMP_pressure;BME280_temperature;BME280_humidity;BME280_pressure;Samples;Min_cycle;Max_cycle;Signal;HPM_P1;HPM_P2
2022/04/08 00:02:19;;;;;;;41.83;23.33;;;;;;;29.64;57.74;100978.28;5112051;27;66471;-36
2022/04/08 00:04:57;;;;;;;44.88;23.42;;;;;;;29.71;57.65;100979.94;5102403;27;69976;-37
2022/04/08 00:07:27;;;;;;;41.08;24.42;;;;;;;29.74;57.83;100990.31;5103092;27;66032;-42
2022/04/08 00:10:18;;;;;;;48.00;25.42;;;;;;;29.84;58.83;100996.16;5104673;27;69939;-39
2022/04/08 00:13:01;;;;;;;41.88;25.40;;;;;;;29.89;59.65;101002.78;5112594;27;65875;-36
2022/04/08 00:15:33;;;;;;;44.90;25.53;;;;;;;29.91;59.96;100998.00;5108400;27;69457;-37
2022/04/08 00:18:05;;;;;;;85.47;51.92;;;;;;;29.88;58.20;100995.72;5116871;27;66205;-36
2022/04/08 00:20:36;;;;;;;67.35;40.92;;;;;;;29.77;58.93;101011.53;5105754;27;70474;-35
2022/04/08 00:23:08;;;;;;;58.20;35.37;;;;;;;29.48;59.14;100968.72;5097656;27;65636;-35
2022/04/08 00:25:39;;;;;;;58.08;32.85;;;;;;;29.63;59.76;101020.69;5111714;27;69031;-37
2022/04/08 00:28:10;;;;;;;62.40;32.13;;;;;;;29.65;58.90;101029.44;5105913;27;67620;-36
2022/04/08 00:30:41;;;;;;;70.43;34.17;;;;;;;29.50;59.58;101015.25;5109571;27;70240;-36
2022/04/08 00:33:11;;;;;;;67.55;36.10;;;;;;;29.53;59.30;101014.84;5107406;27;66683;-36
2022/04/08 00:35:42;;;;;;;73.85;36.83;;;;;;;29.54;60.47;101033.56;5109210;27;69397;-36
2022/04/08 00:38:13;;;;;;;60.53;34.50;;;;;;;29.59;60.13;101030.25;5107750;27;65785;-36
2022/04/08 00:40:44;;;;;;;65.53;34.67;;;;;;;29.71;60.70;101044.00;5102536;27;70288;-36
2022/04/08 00:43:17;;;;;;;61.42;31.55;;;;;;;29.53;56.88;100977.00;5103611;27;67721;-37
2022/04/08 00:45:48;;;;;;;51.55;28.65;;;;;;;30.02;56.44;101040.63;5106569;27;70332;-36
2022/04/08 00:48:19;;;;;;;48.60;29.05;;;;;;;30.04;56.01;101027.72;5105892;27;66127;-36
2022/04/08 00:50:50;;;;;;;42.63;26.35;;;;;;;30.17;56.49;101043.09;5107952;27;70535;-36
2022/04/08 00:53:21;;;;;;;47.53;28.52;;;;;;;30.23;56.30;101048.53;5110736;27;66054;-35
2022/04/08 00:55:53;;;;;;;46.53;28.02;;;;;;;30.28;55.75;101051.44;5110047;27;69626;-36
2022/04/08 00:58:25;;;;;;;44.35;27.45;;;;;;;30.34;55.72;101055.16;5106144;27;66377;-35
2022/04/08 01:00:56;;;;;;;41.67;27.50;;;;;;;30.42;55.34;101056.78;5105089;27;70603;-35
2022/04/08 01:03:27;;;;;;;40.53;27.20;;;;;;;30.37;55.47;101037.66;5111093;27;66140;-34
2022/04/08 01:05:58;;;;;;;43.05;26.48;;;;;;;30.40;55.26;101031.84;5111941;27;68997;-35
2022/04/08 01:08:29;;;;;;;39.33;26.67;;;;;;;30.55;55.00;101056.75;5103683;27;67987;-36
2022/04/08 01:11:00;;;;;;;39.70;26.10;;;;;;;30.58;55.25;101055.50;5104685;27;69978;-35
2022/04/08 01:13:31;;;;;;;43.95;25.77;;;;;;;30.63;54.56;101050.28;5103305;27;65557;-35
2022/04/08 01:16:06;;;;;;;39.38;26.02;;;;;;;30.68;55.15;101056.72;5106148;27;69408;-36
2022/04/08 01:18:37;;;;;;;42.78;26.02;;;;;;;30.72;54.31;101062.50;5106861;27;65938;-34
2022/04/08 01:21:08;;;;;;;39.22;25.48;;;;;;;30.72;54.74;101068.75;5107968;27;69415;-35
2022/04/08 01:23:48;;;;;;;41.75;25.08;;;;;;;30.79;54.28;101073.34;5107723;27;66490;-35
2022/04/08 01:26:28;;;;;;;39.30;24.55;;;;;;;30.78;54.43;101063.53;5108900;27;69628;-37
2022/04/08 01:28:59;;;;;;;38.60;24.90;;;;;;;30.84;54.07;101068.09;5108229;27;66860;-35
2022/04/08 01:31:30;;;;;;;41.05;24.77;;;;;;;30.89;54.44;101069.13;5117282;27;69722;-35
2022/04/08 01:34:01;;;;;;;39.63;25.87;;;;;;;30.89;54.13;101073.72;5116856;27;66331;-36
2022/04/08 01:36:32;;;;;;;33.55;24.55;;;;;;;30.95;53.83;101078.25;5132472;27;69461;-35
2022/04/08 01:39:02;;;;;;;32.65;23.15;;;;;;;30.96;54.01;101084.53;5110836;27;66833;-35
2022/04/08 01:41:33;;;;;;;34.22;22.90;;;;;;;30.99;53.99;101094.94;5115809;27;70587;-35
2022/04/08 01:44:04;;;;;;;34.20;22.15;;;;;;;31.03;54.29;101086.13;5112450;27;65786;-35
2022/04/08 01:46:38;;;;;;;31.77;22.48;;;;;;;31.05;53.66;101088.66;5109380;27;69635;-35
2022/04/08 01:49:09;;;;;;;33.33;21.77;;;;;;;31.04;54.05;101079.69;5108424;27;66521;-36
2022/04/08 01:51:40;;;;;;;33.40;22.10;;;;;;;31.06;53.63;101080.28;5105637;27;67596;-35
2022/04/08 01:54:10;;;;;;;38.38;22.30;;;;;;;31.13;53.99;101089.22;5109681;27;66347;-35
2022/04/08 01:56:41;;;;;;;37.28;22.75;;;;;;;30.87;53.86;101037.88;5116929;27;70387;-35
2022/04/08 01:59:12;;;;;;;34.28;20.95;;;;;;;31.20;54.15;101088.34;5117526;27;66073;-35
2022/04/08 02:01:42;;;;;;;30.30;20.67;;;;;;;31.22;54.09;101088.97;5110330;27;70357;-36
2022/04/08 02:04:13;;;;;;;28.67;19.40;;;;;;;31.23;53.79;101085.19;5110491;27;65089;-35
2022/04/08 02:06:45;;;;;;;35.60;22.43;;;;;;;31.24;53.75;101086.88;5121697;27;68944;-35
2022/04/08 02:09:16;;;;;;;27.10;20.27;;;;;;;31.15;53.42;101057.31;5112269;27;65915;-36
2022/04/08 02:11:47;;;;;;;30.13;19.23;;;;;;;31.30;53.62;101078.69;5109820;27;70542;-36
2022/04/08 02:14:18;;;;;;;29.60;19.90;;;;;;;31.33;53.12;101083.69;5119129;27;66118;-36
2022/04/08 02:16:58;;;;;;;28.30;19.58;;;;;;;31.32;53.67;101081.19;5119261;27;69335;-37
2022/04/08 02:19:49;;;;;;;27.50;19.77;;;;;;;31.35;53.52;101075.34;5121955;27;66056;-36
2022/04/08 02:22:20;;;;;;;22.83;18.45;;;;;;;31.35;53.09;101068.03;5121623;27;69125;-36
2022/04/08 02:24:51;;;;;;;23.73;17.77;;;;;;;31.45;53.05;101083.81;5123010;27;66323;-36
2022/04/08 02:27:23;;;;;;;21.88;18.58;;;;;;;31.48;53.39;101083.41;5121950;27;70788;-39
2022/04/08 02:29:53;;;;;;;27.20;18.53;;;;;;;31.49;52.83;101071.50;5102884;27;65212;-35
2022/04/08 02:32:24;;;;;;;22.83;17.52;;;;;;;31.56;52.75;101080.41;5120627;27;70373;-36
2022/04/08 02:34:58;;;;;;;28.67;18.05;;;;;;;31.51;53.19;101065.84;5108805;27;66077;-35
2022/04/08 02:37:29;;;;;;;25.15;17.55;;;;;;;31.56;52.69;101069.56;5116170;27;69129;-35
2022/04/08 02:40:20;;;;;;;29.67;18.48;;;;;;;31.58;52.86;101072.88;5103078;27;65301;-36
2022/04/08 02:42:51;;;;;;;23.77;17.73;;;;;;;31.64;52.71;101075.78;5102706;27;69119;-35
2022/04/08 02:45:22;;;;;;;26.05;17.15;;;;;;;31.64;52.46;101064.94;5102682;27;65815;-36
2022/04/08 02:47:54;;;;;;;22.63;16.30;;;;;;;31.57;52.78;101044.13;5103476;27;70471;-35
2022/04/08 02:50:25;;;;;;;22.48;16.77;;;;;;;31.73;52.33;101069.00;5118103;27;66719;-43
2022/04/08 02:52:56;;;;;;;20.67;15.70;;;;;;;31.75;52.42;101061.50;5106288;27;70174;-35
2022/04/08 02:55:26;;;;;;;19.05;15.75;;;;;;;31.79;52.24;101068.97;5118546;27;65567;-35
2022/04/08 02:57:58;;;;;;;27.70;15.55;;;;;;;31.80;52.63;101058.94;5108736;27;70382;-36
2022/04/08 03:00:41;;;;;;;20.75;15.68;;;;;;;31.84;52.53;101054.72;5111022;27;65702;-36
2022/04/08 03:03:13;;;;;;;19.65;15.35;;;;;;;31.85;52.69;101050.97;5102486;27;69766;-36
2022/04/08 03:05:43;;;;;;;19.08;15.43;;;;;;;31.77;52.10;101032.28;5102321;27;65360;-35
2022/04/08 03:08:14;;;;;;;24.83;16.15;;;;;;;31.85;52.57;101040.13;5102549;27;69373;-35
2022/04/08 03:10:45;;;;;;;20.17;15.45;;;;;;;31.81;52.28;101033.47;5106414;27;66025;-35
2022/04/08 03:13:16;;;;;;;21.10;16.08;;;;;;;31.96;52.14;101047.56;5106770;27;70018;-35
2022/04/08 03:15:46;;;;;;;23.85;16.42;;;;;;;31.99;52.17;101047.13;5101457;27;66216;-35
2022/04/08 03:18:17;;;;;;;18.90;15.55;;;;;;;32.01;52.29;101039.59;5107767;27;69571;-34
2022/04/08 03:20:48;;;;;;;20.17;15.20;;;;;;;31.96;52.09;101017.72;5119031;27;65531;-35
2022/04/08 03:23:19;;;;;;;22.73;14.93;;;;;;;32.05;52.10;101029.94;5108709;27;69025;-35
2022/04/08 03:25:49;;;;;;;19.10;15.60;;;;;;;32.08;51.67;101028.66;5112709;27;66873;-35
2022/04/08 03:28:20;;;;;;;16.65;14.52;;;;;;;32.07;51.93;101026.16;5131264;27;69535;-35
2022/04/08 03:30:51;;;;;;;22.48;14.95;;;;;;;32.11;51.82;101028.19;5126923;27;66839;-35
2022/04/08 03:33:22;;;;;;;19.85;14.95;;;;;;;32.02;52.09;101018.69;5116743;27;70893;-35
2022/04/08 03:35:52;;;;;;;20.73;15.02;;;;;;;32.02;51.49;101003.25;5112576;27;66984;-35
2022/04/08 03:38:23;;;;;;;15.88;14.05;;;;;;;32.18;51.60;101022.69;5112437;27;70188;-36
2022/04/08 03:40:57;;;;;;;20.02;14.35;;;;;;;32.19;51.61;101014.34;5114061;27;65756;-35
2022/04/08 03:43:28;;;;;;;16.40;13.88;;;;;;;32.22;51.58;101007.63;5107445;27;70030;-34
2022/04/08 03:45:59;;;;;;;16.77;14.53;;;;;;;32.20;51.27;100988.00;5114175;27;66050;-44
2022/04/08 03:48:30;;;;;;;21.83;14.70;;;;;;;32.19;51.29;100980.94;5115916;27;69930;-35
2022/04/08 03:51:00;;;;;;;19.52;14.73;;;;;;;32.25;51.23;100980.84;5112471;27;66494;-35
2022/04/08 03:53:31;;;;;;;23.52;14.50;;;;;;;32.27;51.25;100977.91;5110067;27;70156;-35
2022/04/08 03:56:02;;;;;;;18.67;14.75;;;;;;;32.29;51.22;100970.38;5108006;27;66476;-36
2022/04/08 03:58:33;;;;;;;22.08;14.63;;;;;;;32.31;51.36;100983.72;5115695;27;68990;-34
2022/04/08 04:01:03;;;;;;;18.17;14.35;;;;;;;32.30;51.51;100982.88;5099328;27;66324;-35
2022/04/08 04:03:34;;;;;;;17.48;13.90;;;;;;;32.33;51.06;100979.72;5117596;27;70039;-35
2022/04/08 04:06:05;;;;;;;19.48;14.50;;;;;;;32.34;51.15;100975.94;5102654;27;67348;-36
2022/04/08 04:08:36;;;;;;;16.45;13.93;;;;;;;32.39;51.17;100981.50;5121361;27;70025;-35
2022/04/08 04:11:07;;;;;;;20.63;14.85;;;;;;;32.40;51.12;100969.63;5122004;27;65375;-35
2022/04/08 04:13:37;;;;;;;22.58;15.02;;;;;;;32.39;51.07;100967.94;5120454;27;69581;-35
2022/04/08 04:16:08;;;;;;;18.17;14.57;;;;;;;32.43;50.97;100976.44;5119351;27;66311;-36
2022/04/08 04:18:39;;;;;;;17.70;13.47;;;;;;;32.42;50.68;100958.50;5083832;27;69905;-35
2022/04/08 04:21:12;;;;;;;21.02;14.43;;;;;;;32.44;51.02;100959.94;5105023;27;66305;-35
2022/04/08 04:23:42;;;;;;;18.52;14.48;;;;;;;32.45;51.05;100958.88;5111874;27;70388;-35
2022/04/08 04:26:13;;;;;;;18.97;14.27;;;;;;;32.45;50.92;100950.72;5113631;27;65393;-36
2022/04/08 04:28:44;;;;;;;19.27;14.38;;;;;;;32.47;51.08;100945.13;5108532;27;70769;-36
2022/04/08 04:31:15;;;;;;;15.90;14.27;;;;;;;32.42;50.88;100943.03;5111934;27;65214;-37
2022/04/08 04:33:46;;;;;;;26.88;15.05;;;;;;;32.48;51.20;100946.75;5086782;27;70387;-35
2022/04/08 04:36:19;;;;;;;21.85;14.25;;;;;;;32.24;50.89;100896.94;5114381;27;65006;-35
2022/04/08 04:38:50;;;;;;;22.92;14.32;;;;;;;32.44;50.65;100924.66;5108906;27;69850;-36
2022/04/08 04:41:21;;;;;;;15.45;13.60;;;;;;;32.53;50.78;100930.59;5130297;27;66553;-36
2022/04/08 04:43:52;;;;;;;22.23;14.10;;;;;;;32.55;50.58;100914.91;5100374;27;69395;-35
2022/04/08 04:46:27;;;;;;;16.52;14.13;;;;;;;32.59;50.68;100921.53;5102016;27;65689;-35
2022/04/08 04:48:57;;;;;;;18.42;13.82;;;;;;;32.55;50.65;100914.09;5099933;27;70629;-36
2022/04/08 04:51:30;;;;;;;34.65;14.45;;;;;;;32.58;50.56;100908.19;5125706;27;66474;-35
2022/04/08 04:54:20;;;;;;;19.90;14.40;;;;;;;32.62;50.45;100915.63;5100181;27;69259;-35
2022/04/08 04:56:51;;;;;;;19.92;14.18;;;;;;;32.63;50.62;100894.75;5116718;27;65140;-35
2022/04/08 04:59:21;;;;;;;23.00;14.05;;;;;;;32.39;50.39;100850.38;5103924;27;70413;-37
2022/04/08 05:01:54;;;;;;;18.65;14.15;;;;;;;32.65;50.26;100881.75;5103511;27;66466;-35
2022/04/08 05:04:25;;;;;;;22.50;14.70;;;;;;;32.70;50.39;100881.88;5121265;27;69864;-35
2022/04/08 05:06:56;;;;;;;18.80;13.90;;;;;;;32.69;50.29;100882.97;5122909;27;65722;-36
2022/04/08 05:09:27;;;;;;;17.60;14.23;;;;;;;32.70;50.25;100876.47;5124533;27;70429;-36
2022/04/08 05:11:58;;;;;;;19.85;13.80;;;;;;;32.72;50.10;100871.63;5118397;27;65221;-35
2022/04/08 05:14:29;;;;;;;16.92;14.45;;;;;;;32.71;50.21;100870.81;5119282;27;68981;-36
2022/04/08 05:17:01;;;;;;;17.48;14.15;;;;;;;32.65;50.06;100844.59;5104964;27;66083;-36
2022/04/08 05:19:32;;;;;;;;;;;;;;;32.43;50.42;100852.41;5116219;27;70445;-36
2022/04/08 05:22:03;;;;;;;21.00;13.25;;;;;;;32.72;50.38;100833.59;5104237;27;66747;-34
2022/04/08 05:24:33;;;;;;;15.05;13.27;;;;;;;32.70;50.33;100822.97;5115860;27;70569;-35
2022/04/08 05:27:06;;;;;;;18.58;13.95;;;;;;;32.79;49.86;100823.47;5104559;27;66170;-35
2022/04/08 05:29:36;;;;;;;19.27;13.52;;;;;;;32.82;49.91;100825.72;5106565;27;70546;-35
2022/04/08 05:32:08;;;;;;;18.73;13.65;;;;;;;32.79;49.71;100812.59;5124522;27;65602;-36
2022/04/08 05:34:47;;;;;;;14.63;13.05;;;;;;;32.79;49.92;100806.31;5102446;27;70486;-36
2022/04/08 05:37:18;;;;;;;14.93;13.00;;;;;;;32.86;49.38;100798.91;5132423;27;65395;-35
2022/04/08 05:39:49;;;;;;;14.15;12.75;;;;;;;32.78;49.77;100783.75;5123637;27;70284;-35
2022/04/08 05:42:20;;;;;;;17.15;12.93;;;;;;;32.87;49.66;100790.50;5102924;27;66194;-36
2022/04/08 05:44:51;;;;;;;16.95;13.13;;;;;;;32.90;49.75;100792.75;5110193;27;69114;-35
2022/04/08 05:47:33;;;;;;;15.20;13.13;;;;;;;32.94;49.50;100790.38;5104075;27;65303;-36
2022/04/08 05:50:14;;;;;;;14.20;12.85;;;;;;;32.98;49.46;100779.88;5100361;27;69857;-35
2022/04/08 05:52:47;;;;;;;13.90;12.60;;;;;;;32.94;49.15;100761.31;5108193;27;66109;-34
2022/04/08 05:55:24;;;;;;;18.10;12.38;;;;;;;33.00;49.31;100764.19;5117360;27;68967;-35
2022/04/08 05:57:56;;;;;;;14.25;12.70;;;;;;;33.05;49.37;100756.97;5107939;27;65621;-35
2022/04/08 06:00:29;;;;;;;20.38;13.15;;;;;;;33.07;49.27;100762.16;5121215;27;69655;-35
2022/04/08 06:03:00;;;;;;;15.65;13.32;;;;;;;33.08;49.08;100761.09;5120432;27;65842;-35
2022/04/08 06:05:33;;;;;;;14.20;12.35;;;;;;;33.11;49.29;100745.16;5110148;27;70291;-35
2022/04/08 06:08:04;;;;;;;14.82;12.90;;;;;;;33.06;49.07;100730.63;5097533;27;65054;-37
2022/04/08 06:10:35;;;;;;;13.97;12.53;;;;;;;33.15;48.93;100735.47;5121995;27;70227;-34
2022/04/08 06:13:06;;;;;;;16.55;13.05;;;;;;;33.19;48.95;100746.69;5122912;27;66028;-34
2022/04/08 06:15:37;;;;;;;15.25;12.52;;;;;;;33.19;48.96;100722.22;5118421;27;69970;-35
2022/04/08 06:18:10;;;;;;;13.63;12.33;;;;;;;33.13;48.77;100710.41;5112611;27;67158;-36
2022/04/08 06:20:41;;;;;;;16.92;13.10;;;;;;;33.29;48.77;100722.44;5108825;27;70120;-41
2022/04/08 06:23:11;;;;;;;12.93;11.80;;;;;;;33.31;48.49;100716.75;5111182;27;66309;-35
2022/04/08 06:25:43;;;;;;;13.27;12.00;;;;;;;33.24;48.50;100706.00;5128939;27;70765;-35
2022/04/08 06:28:13;;;;;;;12.95;11.75;;;;;;;33.32;48.49;100705.63;5110292;27;65209;-35
2022/04/08 06:30:44;;;;;;;12.98;11.77;;;;;;;33.29;48.56;100692.53;5102779;27;70339;-36
2022/04/08 06:33:16;;;;;;;15.88;12.82;;;;;;;33.35;48.53;100702.44;5103424;27;65624;-36
2022/04/08 06:35:47;;;;;;;12.60;11.60;;;;;;;33.43;48.44;100694.94;5101337;27;69847;-35
2022/04/08 06:38:17;;;;;;;17.98;12.48;;;;;;;33.44;48.18;100688.47;5101404;27;66279;-34
2022/04/08 06:41:02;;;;;;;18.58;12.43;;;;;;;33.16;48.53;100633.00;5111054;27;70273;-35
2022/04/08 06:43:43;;;;;;;14.32;12.82;;;;;;;33.50;48.40;100682.03;5122120;27;65577;-36
2022/04/08 06:46:14;;;;;;;12.77;11.77;;;;;;;33.55;48.25;100680.28;5122855;27;69434;-36
2022/04/08 06:48:48;;;;;;;13.07;12.15;;;;;;;33.61;48.06;100683.09;5122419;27;66706;-35
2022/04/08 06:51:20;;;;;;;14.07;12.65;;;;;;;33.62;48.01;100668.41;5110416;27;70114;-35
2022/04/08 06:53:51;;;;;;;13.50;12.40;;;;;;;33.63;47.80;100662.75;5106608;27;66206;-35
2022/04/08 06:56:21;;;;;;;13.35;12.05;;;;;;;33.70;47.84;100668.84;5102597;27;69463;-39
2022/04/08 06:58:52;;;;;;;13.57;12.13;;;;;;;33.73;47.76;100660.19;5116340;27;66243;-36
2022/04/08 07:01:25;;;;;;;17.10;12.35;;;;;;;33.76;47.78;100661.59;5122043;27;69200;-36
2022/04/08 07:03:57;;;;;;;12.43;11.30;;;;;;;33.84;47.68;100660.38;5123149;27;65838;-35
2022/04/08 07:06:29;;;;;;;12.37;11.37;;;;;;;33.81;47.54;100640.75;5107594;27;69434;-35
2022/04/08 07:09:00;;;;;;;13.13;11.93;;;;;;;33.91;47.19;100661.06;5101252;27;66156;-35
2022/04/08 07:11:35;;;;;;;15.48;12.00;;;;;;;33.94;47.18;100666.81;5113301;27;70135;-35
2022/04/08 07:14:07;;;;;;;15.23;12.50;;;;;;;33.85;47.57;100637.53;5121982;27;66180;-35
2022/04/08 07:16:37;;;;;;;15.23;13.18;;;;;;;33.97;47.13;100638.28;5114754;27;70212;-36
2022/04/08 07:19:10;;;;;;;13.48;12.27;;;;;;;33.94;47.00;100631.44;5101836;27;66219;-35
2022/04/08 07:21:40;;;;;;;13.75;12.35;;;;;;;34.04;46.73;100638.94;5114370;27;69943;-35
2022/04/08 07:24:11;;;;;;;13.32;12.07;;;;;;;34.10;46.90;100639.88;5122072;27;65665;-36
2022/04/08 07:26:42;;;;;;;13.32;12.13;;;;;;;34.17;46.86;100637.81;5114651;27;69307;-35
2022/04/08 07:29:13;;;;;;;13.07;11.77;;;;;;;34.19;46.77;100630.22;5090374;27;65287;-35
2022/04/08 07:31:44;;;;;;;13.20;11.97;;;;;;;34.21;46.36;100637.06;5101779;27;69685;-35
2022/04/08 07:34:15;;;;;;;14.02;12.63;;;;;;;34.26;46.62;100626.25;5114731;27;66129;-35
2022/04/08 07:36:45;;;;;;;12.88;11.55;;;;;;;34.01;46.53;100569.50;5108378;27;69726;-37
2022/04/08 07:39:17;;;;;;;13.68;12.27;;;;;;;34.36;46.41;100616.59;5121689;27;66144;-35
2022/04/08 07:41:47;;;;;;;13.80;12.55;;;;;;;34.36;46.41;100620.13;5121596;27;69656;-36
2022/04/08 07:44:19;;;;;;;12.07;11.23;;;;;;;34.41;46.38;100619.38;5119181;27;65997;-35
2022/04/08 07:46:49;;;;;;;13.73;12.60;;;;;;;34.44;46.26;100616.16;5104535;27;69942;-36
2022/04/08 07:49:20;;;;;;;13.18;12.00;;;;;;;34.48;46.20;100611.84;5104143;27;66459;-35
2022/04/08 07:51:51;;;;;;;13.68;12.32;;;;;;;34.53;46.23;100630.16;5104525;27;70048;-37
2022/04/08 07:54:22;;;;;;;12.13;11.07;;;;;;;34.55;46.37;100623.41;5112379;27;66297;-35
2022/04/08 07:56:59;;;;;;;12.27;11.30;;;;;;;34.57;45.86;100610.34;5104320;27;69659;-35
2022/04/08 07:59:33;;;;;;;12.52;11.50;;;;;;;34.65;45.94;100618.09;5112263;27;65520;-37
2022/04/08 08:02:04;;;;;;;12.50;11.30;;;;;;;34.63;46.20;100603.94;5104372;27;70059;-35
2022/04/08 08:04:35;;;;;;;13.15;11.85;;;;;;;34.73;45.54;100624.19;5113125;27;65336;-36
2022/04/08 08:07:06;;;;;;;13.52;12.38;;;;;;;34.76;45.32;100629.13;5108252;27;69742;-36
2022/04/08 08:09:37;;;;;;;13.07;11.90;;;;;;;34.80;45.59;100622.09;5112013;27;65886;-35
2022/04/08 08:12:22;;;;;;;12.90;11.88;;;;;;;34.84;45.56;100623.25;5108347;27;70527;-36
2022/04/08 08:14:54;;;;;;;11.20;10.35;;;;;;;34.87;45.32;100625.47;5111324;27;66341;-36
2022/04/08 08:17:25;;;;;;;12.10;11.30;;;;;;;34.89;45.19;100615.13;5112737;27;68871;-36
2022/04/08 08:19:57;;;;;;;14.73;12.27;;;;;;;34.95;45.27;100621.47;5112254;27;66004;-37
2022/04/08 08:22:28;;;;;;;11.85;11.00;;;;;;;34.56;44.84;100554.25;5121112;27;70206;-35
2022/04/08 08:24:59;;;;;;;12.25;11.30;;;;;;;35.00;45.21;100616.09;5116900;27;66477;-35
2022/04/08 08:27:37;;;;;;;12.07;11.15;;;;;;;34.98;44.85;100610.88;5120760;27;69856;-35
2022/04/08 08:30:12;;;;;;;12.10;11.02;;;;;;;35.07;45.26;100614.81;5120140;27;66245;-38
2022/04/08 08:32:46;;;;;;;13.40;12.07;;;;;;;34.71;44.81;100559.06;5117518;27;70057;-35
2022/04/08 08:35:18;;;;;;;12.55;11.35;;;;;;;35.06;44.55;100596.81;5099614;27;65256;-36
2022/04/08 08:37:50;;;;;;;12.27;11.27;;;;;;;35.17;44.71;100610.59;5097237;27;69783;-36
2022/04/08 08:40:37;;;;;;;12.52;11.32;;;;;;;35.05;44.66;100581.53;5114070;27;65768;-35
2022/04/08 08:43:19;;;;;;;12.23;11.23;;;;;;;35.16;44.31;100600.72;5100199;27;70608;-35
2022/04/08 08:45:51;;;;;;;12.73;11.43;;;;;;;35.18;44.60;100590.41;5115104;27;66024;-35
2022/04/08 08:48:33;;;;;;;11.80;10.98;;;;;;;35.24;44.67;100603.81;5102766;27;43915;-35
2022/04/08 08:51:06;;;;;;;13.00;11.75;;;;;;;35.05;44.58;100567.91;5106380;27;66963;-34
2022/04/08 08:53:37;;;;;;;12.30;11.27;;;;;;;35.28;44.29;100604.16;5103792;27;68912;-36
2022/04/08 08:56:07;;;;;;;12.63;11.52;;;;;;;35.29;44.32;100605.78;5083392;27;65320;-35
2022/04/08 08:58:38;;;;;;;12.15;11.35;;;;;;;35.26;44.33;100606.31;5119926;27;70306;-35
2022/04/08 09:01:11;;;;;;;15.52;11.25;;;;;;;35.30;44.58;100604.69;5120579;27;66033;-35
2022/04/08 09:03:44;;;;;;;12.10;11.15;;;;;;;35.30;43.99;100612.88;5101076;27;70489;-44
2022/04/08 09:06:17;;;;;;;12.00;10.98;;;;;;;35.29;44.64;100600.34;5101119;27;66603;-35
2022/04/08 09:08:58;;;;;;;12.02;10.90;;;;;;;34.91;43.65;100542.13;5099667;27;69389;-35
2022/04/08 09:11:28;;;;;;;12.05;11.13;;;;;;;35.34;44.17;100609.38;5120559;27;66210;-36
2022/04/08 09:14:04;;;;;;;12.75;11.55;;;;;;;35.01;44.07;100555.03;5119463;27;71124;-35
2022/04/08 09:16:39;;;;;;;12.07;11.25;;;;;;;34.81;43.86;100529.19;5120538;27;65921;-35
2022/04/08 09:19:14;;;;;;;12.20;11.20;;;;;;;35.34;43.86;100600.38;5114742;27;69821;-35
2022/04/08 09:21:52;;;;;;;12.15;11.27;;;;;;;35.38;43.59;100612.41;5113014;27;66571;-34
2022/04/08 09:24:24;;;;;;;12.75;11.65;;;;;;;35.41;44.26;100613.81;5136093;27;70018;-34
2022/04/08 09:27:04;;;;;;;12.05;11.25;;;;;;;35.28;43.98;100598.69;5119270;27;66364;-35
2022/04/08 09:29:35;;;;;;;12.43;11.20;;;;;;;34.96;43.84;100541.34;5116941;27;70079;-35
2022/04/08 09:32:30;;;;;;;13.02;11.73;;;;;;;35.39;43.91;100611.34;5098228;27;65348;-34
2022/04/08 09:35:00;;;;;;;13.52;12.30;;;;;;;35.37;44.16;100613.50;5112055;27;69606;-36
2022/04/08 09:37:31;;;;;;;12.75;11.77;;;;;;;35.32;43.75;100608.00;5108799;27;65854;-35
2022/04/08 09:40:05;;;;;;;12.48;11.55;;;;;;;35.01;43.65;100564.03;5124224;27;70182;-35
2022/04/08 09:42:47;;;;;;;13.00;12.05;;;;;;;35.02;44.26;100568.41;5121903;27;65617;-36
2022/04/08 09:45:30;;;;;;;12.90;11.95;;;;;;;35.32;43.96;100627.91;5109350;27;70373;-34
2022/04/08 09:48:05;;;;;;;14.68;12.35;;;;;;;35.36;43.87;100625.50;5115924;27;66258;-35
2022/04/08 09:50:39;;;;;;;13.88;12.63;;;;;;;35.35;44.13;100627.41;5114935;27;70885;-36
2022/04/08 09:53:12;;;;;;;12.43;11.30;;;;;;;35.34;44.39;100624.94;5105314;27;66009;-35
2022/04/08 09:55:45;;;;;;;13.70;12.45;;;;;;;35.32;43.94;100625.19;5115726;27;69660;-35
2022/04/08 09:58:16;;;;;;;13.82;12.63;;;;;;;35.33;44.28;100626.84;5107490;27;66278;-35
2022/04/08 10:00:48;;;;;;;13.40;12.50;;;;;;;35.32;44.61;100638.00;5112194;27;69994;-35
2022/04/08 10:03:20;;;;;;;12.82;11.77;;;;;;;35.27;44.40;100629.75;5108276;27;66551;-35
2022/04/08 10:05:51;;;;;;;12.60;11.60;;;;;;;35.22;44.56;100618.81;5110616;27;70093;-35
2022/04/08 10:08:22;;;;;;;12.30;11.27;;;;;;;35.25;44.50;100629.22;5119584;27;66344;-35
2022/04/08 10:11:10;;;;;;;12.80;11.65;;;;;;;35.23;44.44;100634.09;5109889;27;68718;-35
2022/04/08 10:13:52;;;;;;;14.10;12.80;;;;;;;35.22;44.75;100632.44;5116297;27;66357;-35
2022/04/08 10:16:26;;;;;;;13.13;12.23;;;;;;;35.18;44.30;100629.38;5110917;27;69373;-34
2022/04/08 10:19:07;;;;;;;13.32;12.10;;;;;;;35.09;44.70;100623.56;5114623;27;65779;-35
2022/04/08 10:21:41;;;;;;;13.98;12.88;;;;;;;35.17;44.85;100640.56;5121709;27;69879;-36
2022/04/08 10:24:15;;;;;;;13.43;12.48;;;;;;;35.16;44.90;100638.91;5109622;27;66001;-35
2022/04/08 10:27:05;;;;;;;13.00;11.68;;;;;;;35.09;44.82;100650.84;5102006;27;69880;-35
2022/04/08 10:29:39;;;;;;;14.73;13.25;;;;;;;35.08;44.79;100648.38;5118766;27;66217;-35
2022/04/08 10:32:15;;;;;;;19.90;15.95;;;;;;;34.36;45.09;100592.09;5103799;27;69904;-35
2022/04/08 10:34:51;;;;;;;22.67;17.27;;;;;;;34.53;45.17;100660.13;5105419;27;64870;-35
2022/04/08 10:37:25;;;;;;;26.95;20.58;;;;;;;34.32;44.13;100640.75;5121848;27;69308;-34
2022/04/08 10:40:04;;;;;;;32.80;21.13;;;;;;;33.98;42.81;100599.09;5114298;27;66179;-35
2022/04/08 10:42:35;;;;;;;30.30;20.80;;;;;;;34.21;43.03;100656.13;5102625;27;70612;-35
2022/04/08 10:45:13;;;;;;;26.50;22.00;;;;;;;34.20;43.06;100661.81;5101892;27;66673;-34
2022/04/08 10:47:49;;;;;;;29.75;21.00;;;;;;;34.19;42.42;100663.72;5101082;27;70024;-35
2022/04/08 10:50:31;;;;;;;27.83;21.02;;;;;;;34.12;41.94;100664.94;5114466;27;65943;-34
2022/04/08 10:53:10;;;;;;;35.92;22.77;;;;;;;34.01;44.04;100644.88;5108840;27;69515;-35
2022/04/08 10:55:54;;;;;;;30.05;22.08;;;;;;;34.03;42.77;100653.63;5100081;27;66543;-34
2022/04/08 10:58:49;;;;;;;38.53;24.80;;;;;;;33.50;43.70;100597.75;5103135;27;69347;-34
2022/04/08 11:01:22;;;;;;;35.72;23.85;;;;;;;33.56;42.15;100588.63;5109186;27;66942;-35
2022/04/08 11:04:00;;;;;;;31.65;23.38;;;;;;;33.53;42.97;100600.00;5109039;27;70337;-35
2022/04/08 11:06:34;;;;;;;32.15;22.98;;;;;;;33.24;42.36;100570.09;5094711;27;66065;-34
2022/04/08 11:09:06;;;;;;;48.38;22.35;;;;;;;33.53;43.64;100621.75;5116652;27;69905;-35
2022/04/08 11:11:39;;;;;;;33.67;23.13;;;;;;;33.55;43.63;100635.94;5102077;27;65333;-34
2022/04/08 11:14:11;;;;;;;34.30;23.05;;;;;;;33.90;47.13;100692.03;5101446;27;69795;-35
2022/04/08 11:16:42;;;;;;;35.75;22.90;;;;;;;33.86;50.69;100691.72;5104351;27;66270;-35
2022/04/08 11:19:13;;;;;;;36.03;22.30;;;;;;;33.73;51.84;100676.50;5113637;27;68691;-34
2022/04/08 11:21:44;;;;;;;39.08;21.42;;;;;;;33.83;51.85;100691.38;5105900;27;65371;-35
2022/04/08 11:24:19;;;;;;;34.53;22.63;;;;;;;33.79;52.48;100691.88;5105972;27;70526;-35
2022/04/08 11:26:53;;;;;;;26.83;21.10;;;;;;;33.79;53.09;100701.91;5112945;27;66437;-36
2022/04/08 11:29:27;;;;;;;30.55;21.05;;;;;;;33.80;53.76;100704.41;5122269;27;70037;-35
2022/04/08 11:32:11;;;;;;;23.83;19.33;;;;;;;33.72;54.25;100712.94;5120059;27;66384;-35
2022/04/08 11:34:42;;;;;;;27.73;20.80;;;;;;;33.69;54.73;100710.72;5109154;27;70453;-34
2022/04/08 11:37:13;;;;;;;26.05;19.38;;;;;;;33.68;55.23;100728.09;5104753;27;64753;-37